sensor_id;sensor_type;location;lat;lon;timestamp;P1;durP1;ratioP1;P2;durP2;ratioP2
75358;SDS011;64046;51.978;5.934;2023-07-13T00:01:02;3.33;;;1.10;;
75358;SDS011;64046;51.978;5.934;2023-07-13T00:03:35;9.68;;;2.10;;
75358;SDS011;64046;51.978;5.934;2023-07-13T00:06:13;8.32;;;1.88;;
75358;SDS011;64046;51.978;5.934;2023-07-13T00:08:48;5.45;;;1.48;;
75358;SDS011;64046;51.978;5.934;2023-07-13T00:11:19;6.15;;;1.75;;
75358;SDS011;64046;51.978;5.934;2023-07-13T00:13:54;7.35;;;1.80;;
75358;SDS011;64046;51.978;5.934;2023-07-13T00:16:37;4.50;;;1.40;;
75358;SDS011;64046;51.978;5.934;2023-07-13T00:19:13;5.18;;;1.60;;
75358;SDS011;64046;51.978;5.934;2023-07-13T00:21:49;4.35;;;1.60;;
75358;SDS011;64046;51.978;5.934;2023-07-13T00:24:31;5.53;;;1.48;;
75358;SDS011;64046;51.978;5.934;2023-07-13T00:27:13;7.63;;;1.70;;
75358;SDS011;64046;51.978;5.934;2023-07-13T00:29:55;7.35;;;1.60;;
75358;SDS011;64046;51.978;5.934;2023-07-13T00:32:25;5.28;;;1.48;;
75358;SDS011;64046;51.978;5.934;2023-07-13T00:35:02;2.88;;;1.27;;
75358;SDS011;64046;51.978;5.934;2023-07-13T00:37:51;6.07;;;1.65;;
75358;SDS011;64046;51.978;5.934;2023-07-13T00:40:29;8.27;;;1.38;;
75358;SDS011;64046;51.978;5.934;2023-07-13T00:43:09;6.47;;;1.63;;
75358;SDS011;64046;51.978;5.934;2023-07-13T00:48:40;8.48;;;1.27;;
75358;SDS011;64046;51.978;5.934;2023-07-13T00:51:19;4.15;;;1.23;;
75358;SDS011;64046;51.978;5.934;2023-07-13T00:54:04;3.90;;;1.20;;
75358;SDS011;64046;51.978;5.934;2023-07-13T00:56:43;6.60;;;1.63;;
75358;SDS011;64046;51.978;5.934;2023-07-13T00:59:32;3.35;;;1.60;;
75358;SDS011;64046;51.978;5.934;2023-07-13T01:02:10;5.07;;;1.20;;
75358;SDS011;64046;51.978;5.934;2023-07-13T01:04:45;5.53;;;1.75;;
75358;SDS011;64046;51.978;5.934;2023-07-13T01:07:20;4.72;;;1.52;;
75358;SDS011;64046;51.978;5.934;2023-07-13T01:09:59;6.28;;;1.60;;
75358;SDS011;64046;51.978;5.934;2023-07-13T01:12:31;8.30;;;1.40;;
75358;SDS011;64046;51.978;5.934;2023-07-13T01:15:04;3.65;;;1.63;;
75358;SDS011;64046;51.978;5.934;2023-07-13T01:17:56;4.32;;;1.60;;
75358;SDS011;64046;51.978;5.934;2023-07-13T01:20:32;6.07;;;1.60;;
75358;SDS011;64046;51.978;5.934;2023-07-13T01:23:09;3.42;;;1.30;;
75358;SDS011;64046;51.978;5.934;2023-07-13T01:25:46;3.15;;;1.10;;
75358;SDS011;64046;51.978;5.934;2023-07-13T01:28:18;6.03;;;1.50;;
75358;SDS011;64046;51.978;5.934;2023-07-13T01:30:55;3.25;;;1.23;;
75358;SDS011;64046;51.978;5.934;2023-07-13T01:33:29;8.68;;;1.80;;
75358;SDS011;64046;51.978;5.934;2023-07-13T01:36:05;4.90;;;1.35;;
75358;SDS011;64046;51.978;5.934;2023-07-13T01:38:58;7.35;;;1.63;;
75358;SDS011;64046;51.978;5.934;2023-07-13T01:41:31;3.47;;;1.27;;
75358;SDS011;64046;51.978;5.934;2023-07-13T01:44:06;5.47;;;1.38;;
75358;SDS011;64046;51.978;5.934;2023-07-13T01:46:38;3.92;;;1.50;;
75358;SDS011;64046;51.978;5.934;2023-07-13T01:49:11;4.50;;;1.35;;
75358;SDS011;64046;51.978;5.934;2023-07-13T01:51:43;3.53;;;1.30;;
75358;SDS011;64046;51.978;5.934;2023-07-13T01:54:24;7.15;;;1.70;;
75358;SDS011;64046;51.978;5.934;2023-07-13T01:57:06;3.33;;;1.33;;
75358;SDS011;64046;51.978;5.934;2023-07-13T01:59:39;3.85;;;1.33;;
75358;SDS011;64046;51.978;5.934;2023-07-13T02:02:11;4.75;;;1.30;;
75358;SDS011;64046;51.978;5.934;2023-07-13T02:04:47;6.20;;;1.35;;
75358;SDS011;64046;51.978;5.934;2023-07-13T02:07:24;5.03;;;1.95;;
75358;SDS011;64046;51.978;5.934;2023-07-13T02:09:59;7.68;;;1.40;;
75358;SDS011;64046;51.978;5.934;2023-07-13T02:12:34;5.22;;;1.85;;
75358;SDS011;64046;51.978;5.934;2023-07-13T02:15:08;4.15;;;1.60;;
75358;SDS011;64046;51.978;5.934;2023-07-13T02:17:40;5.53;;;1.70;;
75358;SDS011;64046;51.978;5.934;2023-07-13T02:20:20;6.50;;;1.63;;
75358;SDS011;64046;51.978;5.934;2023-07-13T02:22:51;3.47;;;1.40;;
75358;SDS011;64046;51.978;5.934;2023-07-13T02:25:25;6.05;;;1.80;;
75358;SDS011;64046;51.978;5.934;2023-07-13T02:27:59;4.53;;;1.50;;
75358;SDS011;64046;51.978;5.934;2023-07-13T02:30:34;5.10;;;1.85;;
75358;SDS011;64046;51.978;5.934;2023-07-13T02:33:06;5.78;;;1.65;;
75358;SDS011;64046;51.978;5.934;2023-07-13T02:35:38;7.22;;;1.85;;
75358;SDS011;64046;51.978;5.934;2023-07-13T02:38:14;4.97;;;1.55;;
75358;SDS011;64046;51.978;5.934;2023-07-13T02:40:49;7.85;;;1.92;;
75358;SDS011;64046;51.978;5.934;2023-07-13T02:43:22;11.85;;;2.13;;
75358;SDS011;64046;51.978;5.934;2023-07-13T02:46:01;7.20;;;2.20;;
75358;SDS011;64046;51.978;5.934;2023-07-13T02:48:38;7.90;;;2.00;;
75358;SDS011;64046;51.978;5.934;2023-07-13T02:51:09;12.20;;;2.63;;
75358;SDS011;64046;51.978;5.934;2023-07-13T02:53:38;7.53;;;2.25;;
75358;SDS011;64046;51.978;5.934;2023-07-13T02:56:14;7.65;;;2.45;;
75358;SDS011;64046;51.978;5.934;2023-07-13T02:58:50;6.60;;;2.03;;
75358;SDS011;64046;51.978;5.934;2023-07-13T03:01:35;4.53;;;1.90;;
75358;SDS011;64046;51.978;5.934;2023-07-13T03:04:17;4.82;;;1.63;;
75358;SDS011;64046;51.978;5.934;2023-07-13T03:06:51;4.00;;;1.90;;
75358;SDS011;64046;51.978;5.934;2023-07-13T03:09:36;5.10;;;1.73;;
75358;SDS011;64046;51.978;5.934;2023-07-13T03:12:14;7.35;;;1.63;;
75358;SDS011;64046;51.978;5.934;2023-07-13T03:14:49;7.22;;;1.92;;
75358;SDS011;64046;51.978;5.934;2023-07-13T03:17:22;6.38;;;2.05;;
75358;SDS011;64046;51.978;5.934;2023-07-13T03:19:53;6.55;;;2.38;;
75358;SDS011;64046;51.978;5.934;2023-07-13T03:22:44;8.27;;;2.35;;
75358;SDS011;64046;51.978;5.934;2023-07-13T03:25:19;3.95;;;1.85;;
75358;SDS011;64046;51.978;5.934;2023-07-13T03:27:52;4.10;;;1.85;;
75358;SDS011;64046;51.978;5.934;2023-07-13T03:30:26;11.88;;;2.72;;
75358;SDS011;64046;51.978;5.934;2023-07-13T03:32:57;8.75;;;2.63;;
75358;SDS011;64046;51.978;5.934;2023-07-13T03:35:31;8.75;;;2.40;;
75358;SDS011;64046;51.978;5.934;2023-07-13T03:38:02;9.77;;;2.45;;
75358;SDS011;64046;51.978;5.934;2023-07-13T03:40:31;5.00;;;1.95;;
75358;SDS011;64046;51.978;5.934;2023-07-13T03:46:01;6.35;;;2.40;;
75358;SDS011;64046;51.978;5.934;2023-07-13T03:48:37;7.55;;;2.45;;
75358;SDS011;64046;51.978;5.934;2023-07-13T03:51:15;8.73;;;3.03;;
75358;SDS011;64046;51.978;5.934;2023-07-13T03:53:51;8.38;;;2.85;;
75358;SDS011;64046;51.978;5.934;2023-07-13T03:56:23;8.98;;;2.28;;
75358;SDS011;64046;51.978;5.934;2023-07-13T03:58:58;11.90;;;3.30;;
75358;SDS011;64046;51.978;5.934;2023-07-13T04:01:31;6.95;;;2.35;;
75358;SDS011;64046;51.978;5.934;2023-07-13T04:04:15;11.45;;;3.15;;
75358;SDS011;64046;51.978;5.934;2023-07-13T04:06:48;4.40;;;2.28;;
75358;SDS011;64046;51.978;5.934;2023-07-13T04:09:27;8.63;;;3.15;;
75358;SDS011;64046;51.978;5.934;2023-07-13T04:11:57;7.60;;;2.75;;
75358;SDS011;64046;51.978;5.934;2023-07-13T04:14:31;5.50;;;2.30;;
75358;SDS011;64046;51.978;5.934;2023-07-13T04:17:09;10.02;;;2.10;;
75358;SDS011;64046;51.978;5.934;2023-07-13T04:19:41;7.50;;;2.60;;
75358;SDS011;64046;51.978;5.934;2023-07-13T04:22:14;8.98;;;2.45;;
75358;SDS011;64046;51.978;5.934;2023-07-13T04:24:47;5.65;;;2.25;;
75358;SDS011;64046;51.978;5.934;2023-07-13T04:27:20;9.98;;;3.50;;
75358;SDS011;64046;51.978;5.934;2023-07-13T04:30:11;11.70;;;3.03;;
75358;SDS011;64046;51.978;5.934;2023-07-13T04:32:51;10.82;;;2.70;;
75358;SDS011;64046;51.978;5.934;2023-07-13T04:35:25;16.70;;;3.35;;
75358;SDS011;64046;51.978;5.934;2023-07-13T04:38:02;9.20;;;2.60;;
75358;SDS011;64046;51.978;5.934;2023-07-13T04:40:33;10.45;;;2.72;;
75358;SDS011;64046;51.978;5.934;2023-07-13T04:43:04;12.13;;;3.00;;
75358;SDS011;64046;51.978;5.934;2023-07-13T04:45:39;11.88;;;3.13;;
75358;SDS011;64046;51.978;5.934;2023-07-13T04:48:11;9.05;;;3.08;;
75358;SDS011;64046;51.978;5.934;2023-07-13T04:50:42;9.02;;;2.92;;
75358;SDS011;64046;51.978;5.934;2023-07-13T04:53:16;7.53;;;2.53;;
75358;SDS011;64046;51.978;5.934;2023-07-13T04:55:46;9.65;;;3.13;;
75358;SDS011;64046;51.978;5.934;2023-07-13T04:58:20;7.95;;;2.78;;
75358;SDS011;64046;51.978;5.934;2023-07-13T05:01:02;7.10;;;2.70;;
75358;SDS011;64046;51.978;5.934;2023-07-13T05:03:35;8.32;;;3.35;;
75358;SDS011;64046;51.978;5.934;2023-07-13T05:06:06;7.15;;;2.45;;
75358;SDS011;64046;51.978;5.934;2023-07-13T05:08:42;13.05;;;3.70;;
75358;SDS011;64046;51.978;5.934;2023-07-13T05:11:15;7.13;;;3.33;;
75358;SDS011;64046;51.978;5.934;2023-07-13T05:13:45;11.10;;;3.97;;
75358;SDS011;64046;51.978;5.934;2023-07-13T05:16:22;10.13;;;3.30;;
75358;SDS011;64046;51.978;5.934;2023-07-13T05:19:03;10.95;;;3.45;;
75358;SDS011;64046;51.978;5.934;2023-07-13T05:21:37;10.80;;;3.13;;
75358;SDS011;64046;51.978;5.934;2023-07-13T05:24:16;10.15;;;3.53;;
75358;SDS011;64046;51.978;5.934;2023-07-13T05:26:48;7.97;;;2.90;;
75358;SDS011;64046;51.978;5.934;2023-07-13T05:29:21;11.45;;;3.95;;
75358;SDS011;64046;51.978;5.934;2023-07-13T05:31:57;14.93;;;4.40;;
75358;SDS011;64046;51.978;5.934;2023-07-13T05:34:36;10.75;;;4.15;;
75358;SDS011;64046;51.978;5.934;2023-07-13T05:37:08;7.35;;;3.17;;
75358;SDS011;64046;51.978;5.934;2023-07-13T05:42:26;8.90;;;3.88;;
75358;SDS011;64046;51.978;5.934;2023-07-13T05:45:04;11.50;;;4.60;;
75358;SDS011;64046;51.978;5.934;2023-07-13T05:47:44;10.57;;;3.95;;
75358;SDS011;64046;51.978;5.934;2023-07-13T05:50:18;13.75;;;4.75;;
75358;SDS011;64046;51.978;5.934;2023-07-13T05:52:50;11.38;;;3.70;;
75358;SDS011;64046;51.978;5.934;2023-07-13T05:55:19;11.93;;;4.00;;
75358;SDS011;64046;51.978;5.934;2023-07-13T05:57:57;12.13;;;4.68;;
75358;SDS011;64046;51.978;5.934;2023-07-13T06:03:29;18.98;;;4.72;;
75358;SDS011;64046;51.978;5.934;2023-07-13T06:06:00;16.85;;;6.05;;
75358;SDS011;64046;51.978;5.934;2023-07-13T06:08:37;15.20;;;4.55;;
75358;SDS011;64046;51.978;5.934;2023-07-13T06:11:10;13.68;;;4.57;;
75358;SDS011;64046;51.978;5.934;2023-07-13T06:13:44;16.60;;;6.35;;
75358;SDS011;64046;51.978;5.934;2023-07-13T06:16:18;13.00;;;5.20;;
75358;SDS011;64046;51.978;5.934;2023-07-13T06:18:56;14.77;;;5.90;;
75358;SDS011;64046;51.978;5.934;2023-07-13T06:21:26;18.13;;;6.93;;
75358;SDS011;64046;51.978;5.934;2023-07-13T06:24:00;15.52;;;6.30;;
75358;SDS011;64046;51.978;5.934;2023-07-13T06:26:32;15.52;;;5.68;;
75358;SDS011;64046;51.978;5.934;2023-07-13T06:29:08;15.93;;;7.55;;
75358;SDS011;64046;51.978;5.934;2023-07-13T06:31:40;17.77;;;6.40;;
75358;SDS011;64046;51.978;5.934;2023-07-13T06:34:18;19.70;;;6.43;;
75358;SDS011;64046;51.978;5.934;2023-07-13T06:36:54;12.07;;;6.13;;
75358;SDS011;64046;51.978;5.934;2023-07-13T06:39:26;16.30;;;7.57;;
75358;SDS011;64046;51.978;5.934;2023-07-13T06:41:58;19.58;;;7.70;;
75358;SDS011;64046;51.978;5.934;2023-07-13T06:44:37;9.20;;;4.35;;
75358;SDS011;64046;51.978;5.934;2023-07-13T06:47:12;12.05;;;5.32;;
75358;SDS011;64046;51.978;5.934;2023-07-13T06:49:56;9.73;;;4.68;;
75358;SDS011;64046;51.978;5.934;2023-07-13T06:52:27;13.43;;;5.38;;
75358;SDS011;64046;51.978;5.934;2023-07-13T06:55:10;13.48;;;6.13;;
75358;SDS011;64046;51.978;5.934;2023-07-13T06:57:43;18.17;;;7.22;;
75358;SDS011;64046;51.978;5.934;2023-07-13T07:00:20;14.02;;;5.57;;
75358;SDS011;64046;51.978;5.934;2023-07-13T07:02:56;17.05;;;6.93;;
75358;SDS011;64046;51.978;5.934;2023-07-13T07:05:31;21.42;;;7.63;;
75358;SDS011;64046;51.978;5.934;2023-07-13T07:08:06;14.80;;;7.30;;
75358;SDS011;64046;51.978;5.934;2023-07-13T07:10:39;19.35;;;7.50;;
75358;SDS011;64046;51.978;5.934;2023-07-13T07:13:11;14.60;;;7.45;;
75358;SDS011;64046;51.978;5.934;2023-07-13T07:16:02;20.23;;;8.15;;
75358;SDS011;64046;51.978;5.934;2023-07-13T07:18:36;20.75;;;7.55;;
75358;SDS011;64046;51.978;5.934;2023-07-13T07:21:09;15.50;;;7.25;;
75358;SDS011;64046;51.978;5.934;2023-07-13T07:23:41;10.82;;;4.93;;
75358;SDS011;64046;51.978;5.934;2023-07-13T07:26:13;21.02;;;6.93;;
75358;SDS011;64046;51.978;5.934;2023-07-13T07:29:03;17.08;;;7.68;;
75358;SDS011;64046;51.978;5.934;2023-07-13T07:31:41;14.80;;;8.18;;
75358;SDS011;64046;51.978;5.934;2023-07-13T07:34:18;16.15;;;7.00;;
75358;SDS011;64046;51.978;5.934;2023-07-13T07:37:00;17.45;;;7.10;;
75358;SDS011;64046;51.978;5.934;2023-07-13T07:39:34;18.33;;;8.27;;
75358;SDS011;64046;51.978;5.934;2023-07-13T07:42:14;12.77;;;6.65;;
75358;SDS011;64046;51.978;5.934;2023-07-13T07:44:48;18.38;;;7.75;;
75358;SDS011;64046;51.978;5.934;2023-07-13T07:47:27;15.40;;;8.13;;
75358;SDS011;64046;51.978;5.934;2023-07-13T07:50:01;10.75;;;6.72;;
75358;SDS011;64046;51.978;5.934;2023-07-13T07:52:40;16.45;;;6.63;;
75358;SDS011;64046;51.978;5.934;2023-07-13T07:55:13;15.00;;;7.25;;
75358;SDS011;64046;51.978;5.934;2023-07-13T07:57:44;12.65;;;6.93;;
75358;SDS011;64046;51.978;5.934;2023-07-13T08:00:16;19.73;;;6.45;;
75358;SDS011;64046;51.978;5.934;2023-07-13T08:02:58;14.57;;;7.15;;
75358;SDS011;64046;51.978;5.934;2023-07-13T08:05:30;11.77;;;6.15;;
75358;SDS011;64046;51.978;5.934;2023-07-13T08:08:04;11.05;;;6.65;;
75358;SDS011;64046;51.978;5.934;2023-07-13T08:10:35;13.43;;;6.72;;
75358;SDS011;64046;51.978;5.934;2023-07-13T08:13:07;16.25;;;7.38;;
75358;SDS011;64046;51.978;5.934;2023-07-13T08:15:48;10.88;;;5.53;;
75358;SDS011;64046;51.978;5.934;2023-07-13T08:18:20;17.15;;;7.88;;
75358;SDS011;64046;51.978;5.934;2023-07-13T08:20:54;14.00;;;8.02;;
75358;SDS011;64046;51.978;5.934;2023-07-13T08:23:39;16.52;;;7.32;;
75358;SDS011;64046;51.978;5.934;2023-07-13T08:26:09;16.33;;;6.28;;
75358;SDS011;64046;51.978;5.934;2023-07-13T08:28:41;13.27;;;6.10;;
75358;SDS011;64046;51.978;5.934;2023-07-13T08:31:11;18.80;;;6.22;;
75358;SDS011;64046;51.978;5.934;2023-07-13T08:33:41;15.65;;;8.30;;
75358;SDS011;64046;51.978;5.934;2023-07-13T08:36:15;19.13;;;6.10;;
75358;SDS011;64046;51.978;5.934;2023-07-13T08:38:51;8.77;;;4.93;;
75358;SDS011;64046;51.978;5.934;2023-07-13T08:41:22;10.85;;;6.07;;
75358;SDS011;64046;51.978;5.934;2023-07-13T08:43:59;11.07;;;4.80;;
75358;SDS011;64046;51.978;5.934;2023-07-13T08:46:33;12.68;;;5.20;;
75358;SDS011;64046;51.978;5.934;2023-07-13T08:49:08;9.15;;;5.13;;
75358;SDS011;64046;51.978;5.934;2023-07-13T08:51:48;10.85;;;5.22;;
75358;SDS011;64046;51.978;5.934;2023-07-13T08:54:30;12.60;;;5.68;;
75358;SDS011;64046;51.978;5.934;2023-07-13T08:57:10;12.32;;;4.50;;
75358;SDS011;64046;51.978;5.934;2023-07-13T08:59:47;14.15;;;5.20;;
75358;SDS011;64046;51.978;5.934;2023-07-13T09:02:38;11.10;;;5.45;;
75358;SDS011;64046;51.978;5.934;2023-07-13T09:05:29;11.68;;;5.68;;
75358;SDS011;64046;51.978;5.934;2023-07-13T09:08:09;10.07;;;4.28;;
75358;SDS011;64046;51.978;5.934;2023-07-13T09:11:08;11.98;;;5.32;;
75358;SDS011;64046;51.978;5.934;2023-07-13T09:13:53;7.85;;;4.25;;
75358;SDS011;64046;51.978;5.934;2023-07-13T09:16:34;10.63;;;4.47;;
75358;SDS011;64046;51.978;5.934;2023-07-13T09:19:14;7.35;;;3.90;;
75358;SDS011;64046;51.978;5.934;2023-07-13T09:21:58;8.48;;;4.93;;
75358;SDS011;64046;51.978;5.934;2023-07-13T09:24:38;12.07;;;5.03;;
75358;SDS011;64046;51.978;5.934;2023-07-13T09:27:17;10.07;;;4.80;;
75358;SDS011;64046;51.978;5.934;2023-07-13T09:29:56;13.93;;;5.65;;
75358;SDS011;64046;51.978;5.934;2023-07-13T09:32:52;13.73;;;5.40;;
75358;SDS011;64046;51.978;5.934;2023-07-13T09:35:34;9.75;;;4.40;;
75358;SDS011;64046;51.978;5.934;2023-07-13T09:38:10;9.43;;;3.80;;
75358;SDS011;64046;51.978;5.934;2023-07-13T09:40:58;16.10;;;4.72;;
75358;SDS011;64046;51.978;5.934;2023-07-13T09:43:42;10.60;;;4.38;;
75358;SDS011;64046;51.978;5.934;2023-07-13T09:46:43;6.18;;;3.20;;
75358;SDS011;64046;51.978;5.934;2023-07-13T09:49:15;6.60;;;2.47;;
75358;SDS011;64046;51.978;5.934;2023-07-13T09:51:47;9.95;;;3.35;;
75358;SDS011;64046;51.978;5.934;2023-07-13T09:54:29;5.38;;;2.65;;
75358;SDS011;64046;51.978;5.934;2023-07-13T09:57:13;8.77;;;3.33;;
75358;SDS011;64046;51.978;5.934;2023-07-13T09:59:52;8.10;;;3.17;;
75358;SDS011;64046;51.978;5.934;2023-07-13T10:02:58;6.88;;;3.25;;
75358;SDS011;64046;51.978;5.934;2023-07-13T10:05:45;8.00;;;3.40;;
75358;SDS011;64046;51.978;5.934;2023-07-13T10:08:19;9.70;;;3.65;;
75358;SDS011;64046;51.978;5.934;2023-07-13T10:11:08;7.10;;;2.90;;
75358;SDS011;64046;51.978;5.934;2023-07-13T10:13:53;11.98;;;3.78;;
75358;SDS011;64046;51.978;5.934;2023-07-13T10:16:28;9.10;;;4.25;;
75358;SDS011;64046;51.978;5.934;2023-07-13T10:19:04;8.05;;;3.45;;
75358;SDS011;64046;51.978;5.934;2023-07-13T10:21:46;6.18;;;3.30;;
75358;SDS011;64046;51.978;5.934;2023-07-13T10:24:27;12.85;;;3.95;;
75358;SDS011;64046;51.978;5.934;2023-07-13T10:27:02;7.93;;;3.70;;
75358;SDS011;64046;51.978;5.934;2023-07-13T10:29:47;7.70;;;4.15;;
75358;SDS011;64046;51.978;5.934;2023-07-13T10:32:28;8.57;;;4.07;;
75358;SDS011;64046;51.978;5.934;2023-07-13T10:35:04;11.38;;;4.32;;
75358;SDS011;64046;51.978;5.934;2023-07-13T10:37:39;7.93;;;4.32;;
75358;SDS011;64046;51.978;5.934;2023-07-13T10:40:20;6.70;;;3.05;;
75358;SDS011;64046;51.978;5.934;2023-07-13T10:42:58;13.82;;;3.75;;
75358;SDS011;64046;51.978;5.934;2023-07-13T10:45:39;9.10;;;3.88;;
75358;SDS011;64046;51.978;5.934;2023-07-13T10:48:18;9.48;;;3.33;;
75358;SDS011;64046;51.978;5.934;2023-07-13T10:50:56;6.15;;;3.05;;
75358;SDS011;64046;51.978;5.934;2023-07-13T10:53:32;12.18;;;4.22;;
75358;SDS011;64046;51.978;5.934;2023-07-13T10:56:10;9.98;;;4.13;;
75358;SDS011;64046;51.978;5.934;2023-07-13T10:59:01;9.40;;;4.05;;
75358;SDS011;64046;51.978;5.934;2023-07-13T11:01:49;6.55;;;3.75;;
75358;SDS011;64046;51.978;5.934;2023-07-13T11:04:48;7.40;;;2.92;;
75358;SDS011;64046;51.978;5.934;2023-07-13T11:07:24;5.40;;;2.65;;
75358;SDS011;64046;51.978;5.934;2023-07-13T11:10:09;7.00;;;2.60;;
75358;SDS011;64046;51.978;5.934;2023-07-13T11:13:29;5.35;;;2.55;;
75358;SDS011;64046;51.978;5.934;2023-07-13T11:16:32;9.30;;;3.38;;
75358;SDS011;64046;51.978;5.934;2023-07-13T11:22:14;4.47;;;2.80;;
75358;SDS011;64046;51.978;5.934;2023-07-13T11:24:50;8.00;;;2.53;;
75358;SDS011;64046;51.978;5.934;2023-07-13T11:27:36;7.38;;;2.30;;
75358;SDS011;64046;51.978;5.934;2023-07-13T11:33:03;7.45;;;3.20;;
75358;SDS011;64046;51.978;5.934;2023-07-13T11:35:44;8.65;;;2.85;;
75358;SDS011;64046;51.978;5.934;2023-07-13T11:38:19;4.80;;;2.58;;
75358;SDS011;64046;51.978;5.934;2023-07-13T11:40:58;5.85;;;2.25;;
75358;SDS011;64046;51.978;5.934;2023-07-13T11:43:35;5.97;;;2.50;;
75358;SDS011;64046;51.978;5.934;2023-07-13T11:46:13;7.00;;;2.35;;
75358;SDS011;64046;51.978;5.934;2023-07-13T11:48:44;5.60;;;2.40;;
75358;SDS011;64046;51.978;5.934;2023-07-13T11:51:20;6.18;;;1.95;;
75358;SDS011;64046;51.978;5.934;2023-07-13T11:54:03;5.30;;;2.25;;
75358;SDS011;64046;51.978;5.934;2023-07-13T11:56:47;5.57;;;1.98;;
75358;SDS011;64046;51.978;5.934;2023-07-13T11:59:25;3.70;;;1.95;;
75358;SDS011;64046;51.978;5.934;2023-07-13T12:01:58;4.68;;;2.15;;
75358;SDS011;64046;51.978;5.934;2023-07-13T12:04:32;7.03;;;2.72;;
75358;SDS011;64046;51.978;5.934;2023-07-13T12:07:14;6.47;;;2.83;;
75358;SDS011;64046;51.978;5.934;2023-07-13T12:09:47;6.53;;;2.55;;
75358;SDS011;64046;51.978;5.934;2023-07-13T12:12:28;5.55;;;2.20;;
75358;SDS011;64046;51.978;5.934;2023-07-13T12:15:05;4.63;;;2.10;;
75358;SDS011;64046;51.978;5.934;2023-07-13T12:17:38;4.65;;;1.90;;
75358;SDS011;64046;51.978;5.934;2023-07-13T12:20:16;6.10;;;2.90;;
75358;SDS011;64046;51.978;5.934;2023-07-13T12:22:56;6.93;;;2.50;;
75358;SDS011;64046;51.978;5.934;2023-07-13T12:25:29;5.32;;;2.45;;
75358;SDS011;64046;51.978;5.934;2023-07-13T12:28:02;4.47;;;2.50;;
75358;SDS011;64046;51.978;5.934;2023-07-13T12:30:52;5.35;;;2.00;;
75358;SDS011;64046;51.978;5.934;2023-07-13T12:33:31;4.50;;;2.13;;
75358;SDS011;64046;51.978;5.934;2023-07-13T12:36:10;4.63;;;2.33;;
75358;SDS011;64046;51.978;5.934;2023-07-13T12:38:44;7.05;;;2.63;;
75358;SDS011;64046;51.978;5.934;2023-07-13T12:41:17;9.38;;;2.63;;
75358;SDS011;64046;51.978;5.934;2023-07-13T12:43:53;4.63;;;2.20;;
75358;SDS011;64046;51.978;5.934;2023-07-13T12:46:27;6.80;;;2.33;;
75358;SDS011;64046;51.978;5.934;2023-07-13T12:49:08;9.52;;;2.90;;
75358;SDS011;64046;51.978;5.934;2023-07-13T12:51:40;7.70;;;2.40;;
75358;SDS011;64046;51.978;5.934;2023-07-13T12:54:16;5.93;;;2.53;;
75358;SDS011;64046;51.978;5.934;2023-07-13T12:56:48;5.68;;;2.17;;
75358;SDS011;64046;51.978;5.934;2023-07-13T12:59:29;2.92;;;2.00;;
75358;SDS011;64046;51.978;5.934;2023-07-13T13:02:17;6.30;;;2.25;;
75358;SDS011;64046;51.978;5.934;2023-07-13T13:05:02;5.75;;;2.42;;
75358;SDS011;64046;51.978;5.934;2023-07-13T13:07:36;6.30;;;2.33;;
75358;SDS011;64046;51.978;5.934;2023-07-13T13:10:21;4.57;;;2.35;;
75358;SDS011;64046;51.978;5.934;2023-07-13T13:12:54;4.78;;;1.75;;
75358;SDS011;64046;51.978;5.934;2023-07-13T13:15:27;8.57;;;2.25;;
75358;SDS011;64046;51.978;5.934;2023-07-13T13:18:08;6.03;;;2.35;;
75358;SDS011;64046;51.978;5.934;2023-07-13T13:20:51;7.35;;;2.42;;
75358;SDS011;64046;51.978;5.934;2023-07-13T13:23:28;7.13;;;2.20;;
75358;SDS011;64046;51.978;5.934;2023-07-13T13:26:03;10.75;;;2.75;;
75358;SDS011;64046;51.978;5.934;2023-07-13T13:28:40;5.05;;;2.28;;
75358;SDS011;64046;51.978;5.934;2023-07-13T13:31:18;5.28;;;2.22;;
75358;SDS011;64046;51.978;5.934;2023-07-13T13:33:48;3.58;;;1.95;;
75358;SDS011;64046;51.978;5.934;2023-07-13T13:36:28;7.32;;;2.33;;
75358;SDS011;64046;51.978;5.934;2023-07-13T13:39:04;6.13;;;2.33;;
75358;SDS011;64046;51.978;5.934;2023-07-13T13:41:52;5.22;;;2.30;;
75358;SDS011;64046;51.978;5.934;2023-07-13T13:44:24;5.70;;;2.72;;
75358;SDS011;64046;51.978;5.934;2023-07-13T13:46:57;6.50;;;2.40;;
75358;SDS011;64046;51.978;5.934;2023-07-13T13:49:29;8.00;;;2.45;;
75358;SDS011;64046;51.978;5.934;2023-07-13T13:52:00;6.90;;;2.38;;
75358;SDS011;64046;51.978;5.934;2023-07-13T13:54:31;7.20;;;3.10;;
75358;SDS011;64046;51.978;5.934;2023-07-13T13:57:04;4.13;;;2.30;;
75358;SDS011;64046;51.978;5.934;2023-07-13T13:59:47;4.85;;;2.00;;
75358;SDS011;64046;51.978;5.934;2023-07-13T14:05:19;3.28;;;1.85;;
75358;SDS011;64046;51.978;5.934;2023-07-13T14:07:54;5.25;;;2.40;;
75358;SDS011;64046;51.978;5.934;2023-07-13T14:10:27;5.22;;;2.13;;
75358;SDS011;64046;51.978;5.934;2023-07-13T14:13:10;2.60;;;1.73;;
75358;SDS011;64046;51.978;5.934;2023-07-13T14:15:50;3.85;;;1.80;;
75358;SDS011;64046;51.978;5.934;2023-07-13T14:18:21;4.80;;;2.08;;
75358;SDS011;64046;51.978;5.934;2023-07-13T14:20:52;4.65;;;1.90;;
75358;SDS011;64046;51.978;5.934;2023-07-13T14:23:24;5.20;;;1.80;;
75358;SDS011;64046;51.978;5.934;2023-07-13T14:26:00;4.63;;;1.55;;
75358;SDS011;64046;51.978;5.934;2023-07-13T14:28:37;5.78;;;2.30;;
75358;SDS011;64046;51.978;5.934;2023-07-13T14:31:10;3.72;;;2.00;;
75358;SDS011;64046;51.978;5.934;2023-07-13T14:33:48;5.68;;;2.00;;
75358;SDS011;64046;51.978;5.934;2023-07-13T14:36:25;6.03;;;2.22;;
75358;SDS011;64046;51.978;5.934;2023-07-13T14:39:08;4.00;;;2.00;;
75358;SDS011;64046;51.978;5.934;2023-07-13T14:41:52;5.32;;;2.28;;
75358;SDS011;64046;51.978;5.934;2023-07-13T14:44:29;4.57;;;2.17;;
75358;SDS011;64046;51.978;5.934;2023-07-13T14:47:05;3.33;;;1.58;;
75358;SDS011;64046;51.978;5.934;2023-07-13T14:49:41;5.82;;;2.03;;
75358;SDS011;64046;51.978;5.934;2023-07-13T14:52:17;3.70;;;1.90;;
75358;SDS011;64046;51.978;5.934;2023-07-13T14:54:50;3.88;;;1.90;;
75358;SDS011;64046;51.978;5.934;2023-07-13T14:57:21;6.05;;;1.90;;
75358;SDS011;64046;51.978;5.934;2023-07-13T15:00:01;5.88;;;1.92;;
75358;SDS011;64046;51.978;5.934;2023-07-13T15:02:34;4.85;;;2.10;;
75358;SDS011;64046;51.978;5.934;2023-07-13T15:05:12;3.75;;;1.92;;
75358;SDS011;64046;51.978;5.934;2023-07-13T15:07:56;3.65;;;1.92;;
75358;SDS011;64046;51.978;5.934;2023-07-13T15:10:29;3.30;;;2.15;;
75358;SDS011;64046;51.978;5.934;2023-07-13T15:13:01;8.43;;;2.40;;
75358;SDS011;64046;51.978;5.934;2023-07-13T15:15:51;7.10;;;2.22;;
75358;SDS011;64046;51.978;5.934;2023-07-13T15:18:23;5.20;;;2.00;;
75358;SDS011;64046;51.978;5.934;2023-07-13T15:20:59;4.95;;;2.08;;
75358;SDS011;64046;51.978;5.934;2023-07-13T15:23:38;5.55;;;1.88;;
75358;SDS011;64046;51.978;5.934;2023-07-13T15:26:13;3.83;;;1.80;;
75358;SDS011;64046;51.978;5.934;2023-07-13T15:28:52;3.33;;;1.80;;
75358;SDS011;64046;51.978;5.934;2023-07-13T15:31:30;5.70;;;1.88;;
75358;SDS011;64046;51.978;5.934;2023-07-13T15:34:12;4.60;;;2.00;;
75358;SDS011;64046;51.978;5.934;2023-07-13T15:36:46;5.18;;;2.00;;
75358;SDS011;64046;51.978;5.934;2023-07-13T15:39:29;7.10;;;2.20;;
75358;SDS011;64046;51.978;5.934;2023-07-13T15:42:03;5.25;;;1.90;;
75358;SDS011;64046;51.978;5.934;2023-07-13T15:44:34;4.15;;;1.65;;
75358;SDS011;64046;51.978;5.934;2023-07-13T15:47:11;3.50;;;2.10;;
75358;SDS011;64046;51.978;5.934;2023-07-13T15:49:45;3.13;;;1.40;;
75358;SDS011;64046;51.978;5.934;2023-07-13T15:52:20;4.85;;;2.22;;
75358;SDS011;64046;51.978;5.934;2023-07-13T15:54:55;4.63;;;1.90;;
75358;SDS011;64046;51.978;5.934;2023-07-13T15:57:28;5.38;;;2.45;;
75358;SDS011;64046;51.978;5.934;2023-07-13T16:00:02;5.88;;;2.25;;
75358;SDS011;64046;51.978;5.934;2023-07-13T16:02:42;4.43;;;2.10;;